createdAt,value
2023-05-09T00:01:12.891Z,5.18
2023-05-09T00:03:40.766Z,4.95
2023-05-09T00:06:07.906Z,5.57
2023-05-09T00:08:34.892Z,5.22
2023-05-09T00:11:02.346Z,4.93
2023-05-09T00:13:29.359Z,5.50
2023-05-09T00:15:57.454Z,5.35
2023-05-09T00:18:24.484Z,5.97
2023-05-09T00:20:51.455Z,5.18
2023-05-09T00:23:18.369Z,5.70
2023-05-09T00:25:45.347Z,6.25
2023-05-09T00:28:12.337Z,6.18
2023-05-09T00:30:39.452Z,6.03
2023-05-09T00:33:06.453Z,4.90
2023-05-09T00:35:33.439Z,5.22
2023-05-09T00:38:00.379Z,5.70
2023-05-09T00:40:27.670Z,6.47
2023-05-09T00:42:58.280Z,5.32
2023-05-09T00:45:25.587Z,5.88
2023-05-09T00:47:52.818Z,6.00
2023-05-09T00:50:20.036Z,6.30
2023-05-09T00:52:46.996Z,6.47
2023-05-09T00:55:15.979Z,5.97
2023-05-09T00:57:43.334Z,5.63
2023-05-09T01:00:14.268Z,5.15
2023-05-09T01:02:47.552Z,5.15
2023-05-09T01:05:15.511Z,5.93
2023-05-09T01:08:10.692Z,5.80
2023-05-09T01:11:16.381Z,5.90
2023-05-09T01:14:07.696Z,5.28
2023-05-09T01:16:41.776Z,4.95
2023-05-09T01:19:15.023Z,5.60
2023-05-09T01:21:48.282Z,5.65
2023-05-09T01:24:44.845Z,5.68
2023-05-09T01:27:45.670Z,4.97
2023-05-09T01:30:14.133Z,6.07
2023-05-09T01:32:43.947Z,5.28
2023-05-09T01:35:14.673Z,6.15
2023-05-09T01:37:44.646Z,6.10
2023-05-09T01:40:15.309Z,5.70
2023-05-09T01:42:51.474Z,5.95
2023-05-09T01:45:20.019Z,5.68
2023-05-09T01:47:49.015Z,5.53
2023-05-09T01:50:18.541Z,5.20
2023-05-09T01:52:48.682Z,5.57
2023-05-09T01:55:16.980Z,5.28
2023-05-09T01:57:45.830Z,6.25
2023-05-09T02:00:14.387Z,5.43
2023-05-09T02:02:42.265Z,5.45
2023-05-09T02:05:11.774Z,5.55
2023-05-09T02:07:41.746Z,6.10
2023-05-09T02:10:10.996Z,5.28
2023-05-09T02:12:38.759Z,5.28
2023-05-09T02:15:06.791Z,5.35
2023-05-09T02:17:35.275Z,6.38
2023-05-09T02:20:02.245Z,5.85
2023-05-09T02:22:29.359Z,6.05
2023-05-09T02:24:56.768Z,5.38
2023-05-09T02:27:24.561Z,5.25
2023-05-09T02:29:56.448Z,6.40
2023-05-09T02:32:27.171Z,5.53
2023-05-09T02:34:55.743Z,5.50
2023-05-09T02:37:24.336Z,5.18
2023-05-09T02:39:51.831Z,6.05
2023-05-09T02:42:25.091Z,6.25
2023-05-09T02:44:53.694Z,5.35
2023-05-09T02:47:21.210Z,5.43
2023-05-09T02:49:48.563Z,5.53
2023-05-09T02:52:16.235Z,5.32
2023-05-09T02:54:43.302Z,5.28
2023-05-09T02:57:10.433Z,4.90
2023-05-09T02:59:37.779Z,5.90
2023-05-09T03:02:05.159Z,5.78
2023-05-09T03:04:32.150Z,5.55
2023-05-09T03:06:59.658Z,5.50
2023-05-09T03:09:31.483Z,6.05
2023-05-09T03:11:58.415Z,5.75
2023-05-09T03:14:26.029Z,6.63
2023-05-09T03:16:52.996Z,6.43
2023-05-09T03:19:28.259Z,5.93
2023-05-09T03:21:55.268Z,5.57
2023-05-09T03:24:23.178Z,6.63
2023-05-09T03:26:50.117Z,5.63
2023-05-09T03:29:17.129Z,6.47
2023-05-09T03:31:44.144Z,5.85
2023-05-09T03:34:15.229Z,6.32
2023-05-09T03:36:44.302Z,6.00
2023-05-09T03:39:13.282Z,5.60
2023-05-09T03:41:44.252Z,6.50
2023-05-09T03:44:12.106Z,5.95
2023-05-09T03:46:39.160Z,5.90
2023-05-09T03:49:06.590Z,5.97
2023-05-09T03:51:34.753Z,6.18
2023-05-09T03:54:03.792Z,6.65
2023-05-09T03:56:30.811Z,5.90
2023-05-09T03:58:57.873Z,6.63
2023-05-09T04:01:26.728Z,6.38
2023-05-09T04:03:57.696Z,5.97
2023-05-09T04:06:25.910Z,6.10
2023-05-09T04:08:52.941Z,5.82
2023-05-09T04:11:19.882Z,6.22
2023-05-09T04:13:48.072Z,6.53
2023-05-09T04:16:28.730Z,5.97
2023-05-09T04:18:55.741Z,5.70
2023-05-09T04:21:22.753Z,5.57
2023-05-09T04:23:53.566Z,6.93
2023-05-09T04:26:28.245Z,6.22
2023-05-09T04:28:57.189Z,6.68
2023-05-09T04:31:24.328Z,6.82
2023-05-09T04:33:52.539Z,6.38
2023-05-09T04:36:21.119Z,5.72
2023-05-09T04:38:48.762Z,6.05
2023-05-09T04:41:20.198Z,5.57
2023-05-09T04:43:47.886Z,6.50
2023-05-09T04:46:15.151Z,6.05
2023-05-09T04:48:42.485Z,6.13
2023-05-09T04:51:09.509Z,5.32
2023-05-09T04:53:36.944Z,6.25
2023-05-09T04:56:04.365Z,4.97
2023-05-09T04:58:34.435Z,5.88
2023-05-09T05:01:01.920Z,6.22
2023-05-09T05:03:29.096Z,5.47
2023-05-09T05:05:56.141Z,6.07
2023-05-09T05:08:23.256Z,6.50
2023-05-09T05:10:51.056Z,5.57
2023-05-09T05:13:18.896Z,6.75
2023-05-09T05:15:50.074Z,5.85
2023-05-09T05:18:17.947Z,6.03
2023-05-09T05:20:44.949Z,6.50
2023-05-09T05:23:12.289Z,6.32
2023-05-09T05:25:39.367Z,6.30
2023-05-09T05:28:06.720Z,5.53
2023-05-09T05:30:34.625Z,6.07
2023-05-09T05:33:02.804Z,4.80
2023-05-09T05:35:29.871Z,5.88
2023-05-09T05:37:57.607Z,5.53
2023-05-09T05:40:26.206Z,5.90
2023-05-09T05:42:54.934Z,5.50
2023-05-09T05:45:22.910Z,5.47
2023-05-09T05:47:53.317Z,5.80
2023-05-09T05:50:20.879Z,5.20
2023-05-09T05:52:48.013Z,4.30
2023-05-09T05:55:17.747Z,5.35
2023-05-09T05:57:44.799Z,6.25
2023-05-09T06:00:15.387Z,4.47
2023-05-09T06:02:49.640Z,5.10
2023-05-09T06:05:23.518Z,5.60
2023-05-09T06:07:51.664Z,5.55
2023-05-09T06:10:18.605Z,5.85
2023-05-09T06:12:46.002Z,5.10
2023-05-09T06:15:13.185Z,5.53
2023-05-09T06:17:44.226Z,6.13
2023-05-09T06:20:11.539Z,5.10
2023-05-09T06:22:38.576Z,5.63
2023-05-09T06:25:08.044Z,5.32
2023-05-09T06:27:36.508Z,4.97
2023-05-09T06:30:14.058Z,5.05
2023-05-09T06:32:44.943Z,5.95
2023-05-09T06:35:12.082Z,5.32
2023-05-09T06:37:39.201Z,5.03
2023-05-09T06:40:07.329Z,4.60
2023-05-09T06:42:34.536Z,5.68
2023-05-09T06:45:01.512Z,5.15
2023-05-09T06:47:28.639Z,5.18
2023-05-09T06:49:55.616Z,4.22
2023-05-09T06:52:22.660Z,4.93
2023-05-09T06:54:49.688Z,4.63
2023-05-09T06:57:16.701Z,4.53
2023-05-09T06:59:44.895Z,5.20
2023-05-09T07:02:11.850Z,4.50
2023-05-09T07:04:38.869Z,5.30
2023-05-09T07:07:06.002Z,5.10
2023-05-09T07:09:33.390Z,4.63
2023-05-09T07:12:01.662Z,5.85
2023-05-09T07:14:28.717Z,4.93
2023-05-09T07:17:05.118Z,4.30
2023-05-09T07:19:37.394Z,5.10
2023-05-09T07:22:04.341Z,4.88
2023-05-09T07:24:33.674Z,5.60
2023-05-09T07:27:03.824Z,5.30
2023-05-09T07:29:30.862Z,5.10
2023-05-09T07:31:58.088Z,5.35
2023-05-09T07:34:25.628Z,5.47
2023-05-09T07:36:52.789Z,4.85
2023-05-09T07:39:19.958Z,4.40
2023-05-09T07:41:48.680Z,4.82
2023-05-09T07:44:16.068Z,5.20
2023-05-09T07:46:43.104Z,5.15
2023-05-09T07:49:10.313Z,4.65
2023-05-09T07:51:37.406Z,4.53
2023-05-09T07:54:04.810Z,3.92
2023-05-09T07:56:31.778Z,4.47
2023-05-09T07:58:58.711Z,4.45
2023-05-09T08:01:25.828Z,4.85
2023-05-09T08:03:53.351Z,4.22
2023-05-09T08:06:21.369Z,4.35
2023-05-09T08:08:48.469Z,5.20
2023-05-09T08:11:15.524Z,4.72
2023-05-09T08:13:42.577Z,4.78
2023-05-09T08:16:09.549Z,4.88
2023-05-09T08:18:36.789Z,4.57
2023-05-09T08:21:03.878Z,4.20
2023-05-09T08:23:31.063Z,4.40
2023-05-09T08:25:59.123Z,5.05
2023-05-09T08:28:28.534Z,4.95
2023-05-09T08:30:56.945Z,4.85
2023-05-09T08:33:24.364Z,5.75
2023-05-09T08:35:52.305Z,4.57
2023-05-09T08:38:19.817Z,4.65
2023-05-09T08:40:46.965Z,4.28
2023-05-09T08:43:15.336Z,3.83
2023-05-09T08:45:55.039Z,4.10
2023-05-09T08:48:23.292Z,4.55
2023-05-09T08:50:50.896Z,4.78
2023-05-09T08:53:18.255Z,3.60
2023-05-09T08:55:45.983Z,3.90
2023-05-09T08:58:14.778Z,3.92
2023-05-09T09:00:41.971Z,4.45
2023-05-09T09:03:09.171Z,3.40
2023-05-09T09:05:41.682Z,4.22
2023-05-09T09:08:10.960Z,4.28
2023-05-09T09:10:42.724Z,3.97
2023-05-09T09:13:11.429Z,3.83
2023-05-09T09:15:40.587Z,4.38
2023-05-09T09:18:11.596Z,5.38
2023-05-09T09:20:43.630Z,3.38
2023-05-09T09:23:11.621Z,3.40
2023-05-09T09:25:39.649Z,3.83
2023-05-09T09:28:06.820Z,3.42
2023-05-09T09:30:33.936Z,3.22
2023-05-09T09:33:01.020Z,3.90
2023-05-09T09:35:27.998Z,2.83
2023-05-09T09:38:00.235Z,3.28
2023-05-09T09:40:27.432Z,3.45
2023-05-09T09:42:54.467Z,3.15
2023-05-09T09:45:21.527Z,3.10
2023-05-09T09:47:50.277Z,3.28
2023-05-09T09:50:23.401Z,3.42
2023-05-09T09:52:53.112Z,3.83
2023-05-09T09:55:22.057Z,3.40
2023-05-09T09:57:49.259Z,3.85
2023-05-09T10:00:18.651Z,3.00
2023-05-09T10:02:50.743Z,3.13
2023-05-09T10:05:29.280Z,3.45
2023-05-09T10:08:01.177Z,3.33
2023-05-09T10:10:30.251Z,3.85
2023-05-09T10:12:59.138Z,3.92
2023-05-09T10:15:30.105Z,3.78
2023-05-09T10:18:01.882Z,3.75
2023-05-09T10:20:29.440Z,3.67
2023-05-09T10:22:58.931Z,4.10
2023-05-09T10:25:39.563Z,3.75
2023-05-09T10:28:13.249Z,3.83
2023-05-09T10:30:57.262Z,4.05
2023-05-09T10:33:34.646Z,3.60
2023-05-09T10:36:03.489Z,3.88
2023-05-09T10:38:31.199Z,2.88
2023-05-09T10:40:58.983Z,4.38
2023-05-09T10:43:27.258Z,3.70
2023-05-09T10:45:55.236Z,3.50
2023-05-09T10:48:22.743Z,3.60
2023-05-09T10:50:49.987Z,3.00
2023-05-09T10:53:17.941Z,3.40
2023-05-09T10:55:49.671Z,3.13
2023-05-09T10:58:26.903Z,3.50
2023-05-09T11:00:59.550Z,3.35
2023-05-09T11:03:28.175Z,3.10
2023-05-09T11:05:57.265Z,3.65
2023-05-09T11:08:28.731Z,2.90
2023-05-09T11:11:15.181Z,3.65
2023-05-09T11:13:46.459Z,3.38
2023-05-09T11:16:13.657Z,2.95
2023-05-09T11:18:52.408Z,2.92
2023-05-09T11:21:20.483Z,3.30
2023-05-09T11:23:48.522Z,3.03
2023-05-09T11:26:16.729Z,3.55
2023-05-09T11:28:52.633Z,3.38
2023-05-09T11:31:20.595Z,3.50
2023-05-09T11:33:55.128Z,3.50
2023-05-09T11:36:37.895Z,3.08
2023-05-09T11:39:07.057Z,2.75
2023-05-09T11:41:47.190Z,2.40
2023-05-09T11:44:18.940Z,2.60
2023-05-09T11:46:47.368Z,2.50
2023-05-09T11:49:15.234Z,2.80
2023-05-09T11:51:42.646Z,2.42
2023-05-09T11:54:10.575Z,2.50
2023-05-09T11:56:40.021Z,3.08
2023-05-09T11:59:07.891Z,2.28
2023-05-09T12:01:36.363Z,3.15
2023-05-09T12:04:03.796Z,2.90
2023-05-09T12:06:30.800Z,2.20
2023-05-09T12:08:57.991Z,2.55
2023-05-09T12:11:25.141Z,1.80
2023-05-09T12:13:53.071Z,1.83
2023-05-09T12:16:21.434Z,1.83
2023-05-09T12:18:52.601Z,2.10
2023-05-09T12:21:20.623Z,1.70
2023-05-09T12:23:50.645Z,1.55
2023-05-09T12:26:18.629Z,1.67
2023-05-09T12:28:45.793Z,1.60
2023-05-09T12:31:13.207Z,1.60
2023-05-09T12:33:40.513Z,1.52
2023-05-09T12:36:10.216Z,1.67
2023-05-09T12:38:37.827Z,1.70
2023-05-09T12:41:10.713Z,1.70
2023-05-09T12:43:48.773Z,1.75
2023-05-09T12:46:20.189Z,1.73
2023-05-09T12:48:48.272Z,1.55
2023-05-09T12:51:22.554Z,2.40
2023-05-09T12:53:50.372Z,1.85
2023-05-09T12:56:23.510Z,1.67
2023-05-09T12:58:56.726Z,1.70
2023-05-09T13:01:28.593Z,1.70
2023-05-09T13:04:04.175Z,1.85
2023-05-09T13:06:31.343Z,1.67
2023-05-09T13:09:00.438Z,1.40
2023-05-09T13:11:28.015Z,1.52
2023-05-09T13:13:55.557Z,1.27
2023-05-09T13:16:22.646Z,1.58
2023-05-09T13:18:49.866Z,1.75
2023-05-09T13:21:16.854Z,1.33
2023-05-09T13:23:45.432Z,1.40
2023-05-09T13:26:12.667Z,1.60
2023-05-09T13:28:39.705Z,1.55
2023-05-09T13:31:08.078Z,1.50
2023-05-09T13:33:35.215Z,1.35
2023-05-09T13:36:02.354Z,1.40
2023-05-09T13:38:32.127Z,1.30
2023-05-09T13:41:00.137Z,1.20
2023-05-09T13:43:27.543Z,1.40
2023-05-09T13:45:54.737Z,1.33
2023-05-09T13:48:21.768Z,1.20
2023-05-09T13:50:48.766Z,1.85
2023-05-09T13:53:15.750Z,1.40
2023-05-09T13:55:42.964Z,1.20
2023-05-09T13:58:09.897Z,1.15
2023-05-09T14:00:36.952Z,1.33
2023-05-09T14:03:04.149Z,1.20
2023-05-09T14:05:34.541Z,1.27
2023-05-09T14:08:01.803Z,1.38
2023-05-09T14:10:29.066Z,1.10
2023-05-09T14:12:57.124Z,0.98
2023-05-09T14:15:24.144Z,1.20
2023-05-09T14:17:51.608Z,1.10
2023-05-09T14:20:18.708Z,1.15
2023-05-09T14:22:46.545Z,0.95
2023-05-09T14:25:13.511Z,1.30
2023-05-09T14:27:40.695Z,1.27
2023-05-09T14:30:08.795Z,1.35
2023-05-09T14:32:35.927Z,1.33
2023-05-09T14:35:03.049Z,1.45
2023-05-09T14:37:30.425Z,1.45
2023-05-09T14:39:57.516Z,1.77
2023-05-09T14:42:24.704Z,1.40
2023-05-09T14:44:51.657Z,1.73
2023-05-09T14:47:18.628Z,1.70
2023-05-09T14:49:45.896Z,1.75
2023-05-09T14:52:13.775Z,1.83
2023-05-09T14:54:41.156Z,2.05
2023-05-09T14:57:08.444Z,2.53
2023-05-09T14:59:37.101Z,3.00
2023-05-09T15:02:04.291Z,3.17
2023-05-09T15:04:31.722Z,3.03
2023-05-09T15:06:59.222Z,2.50
2023-05-09T15:09:27.016Z,2.85
2023-05-09T15:11:55.025Z,2.50
2023-05-09T15:14:22.418Z,2.47
2023-05-09T15:16:51.745Z,2.50
2023-05-09T15:19:19.208Z,2.38
2023-05-09T15:21:46.480Z,2.35
2023-05-09T15:24:13.527Z,2.70
2023-05-09T15:26:40.651Z,2.53
2023-05-09T15:29:07.597Z,2.60
2023-05-09T15:31:36.365Z,2.50
2023-05-09T15:34:03.626Z,1.83
2023-05-09T15:36:31.060Z,2.30
2023-05-09T15:38:58.076Z,2.33
2023-05-09T15:41:25.304Z,2.33
2023-05-09T15:43:52.678Z,2.95
2023-05-09T15:46:19.844Z,2.70
2023-05-09T15:48:47.757Z,2.75
2023-05-09T15:51:15.075Z,3.22
2023-05-09T15:53:42.204Z,2.45
2023-05-09T15:56:09.277Z,2.90
2023-05-09T15:58:36.844Z,3.15
2023-05-09T16:01:06.223Z,3.20
2023-05-09T16:03:33.828Z,2.20
2023-05-09T16:06:01.220Z,2.38
2023-05-09T16:08:28.204Z,2.70
2023-05-09T16:10:55.303Z,2.47
2023-05-09T16:13:22.549Z,2.70
2023-05-09T16:15:50.893Z,3.03
2023-05-09T16:18:18.769Z,2.20
2023-05-09T16:20:45.775Z,2.45
2023-05-09T16:23:13.263Z,1.77
2023-05-09T16:25:40.336Z,2.20
2023-05-09T16:28:08.338Z,3.42
2023-05-09T16:30:35.398Z,2.63
2023-05-09T16:33:02.387Z,2.58
2023-05-09T16:35:29.557Z,2.70
2023-05-09T16:37:56.673Z,2.40
2023-05-09T16:40:23.752Z,2.50
2023-05-09T16:42:50.842Z,2.50
2023-05-09T16:45:17.980Z,2.72
2023-05-09T16:47:44.986Z,2.47
2023-05-09T16:50:12.231Z,2.28
2023-05-09T16:52:39.207Z,2.22
2023-05-09T16:55:06.962Z,2.58
2023-05-09T16:57:34.061Z,2.20
2023-05-09T17:00:01.071Z,1.92
2023-05-09T17:02:28.123Z,2.60
2023-05-09T17:04:55.118Z,2.13
2023-05-09T17:07:22.334Z,2.22
2023-05-09T17:09:49.719Z,2.20
2023-05-09T17:12:18.334Z,2.40
2023-05-09T17:14:47.106Z,2.38
2023-05-09T17:17:14.878Z,1.98
2023-05-09T17:19:42.749Z,2.25
2023-05-09T17:22:10.035Z,2.53
2023-05-09T17:24:37.218Z,1.58
2023-05-09T17:27:05.363Z,2.65
2023-05-09T17:29:32.682Z,2.90
2023-05-09T17:32:00.866Z,2.38
2023-05-09T17:34:28.764Z,1.88
2023-05-09T17:36:56.343Z,2.00
2023-05-09T17:39:23.840Z,2.65
2023-05-09T17:41:50.881Z,2.20
2023-05-09T17:44:17.939Z,1.90
2023-05-09T17:46:45.077Z,2.28
2023-05-09T17:49:14.135Z,2.20
2023-05-09T17:51:41.566Z,2.58
2023-05-09T17:54:08.886Z,2.15
2023-05-09T17:56:36.170Z,2.80
2023-05-09T17:59:03.386Z,2.45
2023-05-09T18:01:30.528Z,3.00
2023-05-09T18:03:57.849Z,2.40
2023-05-09T18:06:26.214Z,2.10
2023-05-09T18:08:53.340Z,3.38
2023-05-09T18:11:20.578Z,2.90
2023-05-09T18:13:47.571Z,2.20
2023-05-09T18:16:14.553Z,2.63
2023-05-09T18:18:41.610Z,3.15
2023-05-09T18:21:09.699Z,2.72
2023-05-09T18:23:36.916Z,2.78
2023-05-09T18:26:04.383Z,3.08
2023-05-09T18:28:31.902Z,2.83
2023-05-09T18:31:01.324Z,3.20
2023-05-09T18:33:29.026Z,2.50
2023-05-09T18:35:55.955Z,3.05
2023-05-09T18:38:23.008Z,3.42
2023-05-09T18:40:52.122Z,3.05
2023-05-09T18:43:21.528Z,4.00
2023-05-09T18:45:49.238Z,3.17
2023-05-09T18:48:17.189Z,4.03
2023-05-09T18:50:44.789Z,3.70
2023-05-09T18:53:12.467Z,3.83
2023-05-09T18:55:40.066Z,3.88
2023-05-09T18:58:07.218Z,3.13
2023-05-09T19:00:35.745Z,3.53
2023-05-09T19:03:02.828Z,3.20
2023-05-09T19:05:29.923Z,3.17
2023-05-09T19:07:57.133Z,3.95
2023-05-09T19:10:24.337Z,3.17
2023-05-09T19:12:52.778Z,3.33
2023-05-09T19:15:19.931Z,3.33
2023-05-09T19:17:46.922Z,3.00
2023-05-09T19:20:14.283Z,3.47
2023-05-09T19:22:45.500Z,3.33
2023-05-09T19:25:12.401Z,3.15
2023-05-09T19:27:39.323Z,2.70
2023-05-09T19:30:07.513Z,3.15
2023-05-09T19:32:34.627Z,2.40
2023-05-09T19:35:03.698Z,3.03
2023-05-09T19:37:30.712Z,2.50
2023-05-09T19:39:57.836Z,2.88
2023-05-09T19:42:24.792Z,2.72
2023-05-09T19:44:54.672Z,2.78
2023-05-09T19:47:21.823Z,2.67
2023-05-09T19:49:48.901Z,2.22
2023-05-09T19:52:16.117Z,2.20
2023-05-09T19:54:43.113Z,2.40
2023-05-09T19:57:10.573Z,2.70
2023-05-09T19:59:37.564Z,2.40
2023-05-09T20:02:04.596Z,2.22
2023-05-09T20:04:37.032Z,2.25
2023-05-09T20:07:05.147Z,2.67
2023-05-09T20:09:33.067Z,2.08
2023-05-09T20:12:02.639Z,1.70
2023-05-09T20:14:29.638Z,2.03
2023-05-09T20:16:56.991Z,2.03
2023-05-09T20:19:23.976Z,2.30
2023-05-09T20:21:51.286Z,2.22
2023-05-09T20:24:18.166Z,2.15
2023-05-09T20:26:45.235Z,1.98
2023-05-09T20:29:12.124Z,2.42
2023-05-09T20:31:39.116Z,2.35
2023-05-09T20:34:06.296Z,2.33
2023-05-09T20:36:33.168Z,2.17
2023-05-09T20:39:00.145Z,1.98
2023-05-09T20:41:27.221Z,2.33
2023-05-09T20:43:54.686Z,2.00
2023-05-09T20:46:21.743Z,2.85
2023-05-09T20:48:48.740Z,2.15
2023-05-09T20:51:15.817Z,2.30
2023-05-09T20:53:42.662Z,2.92
2023-05-09T20:56:09.539Z,2.50
2023-05-09T20:58:36.419Z,2.65
2023-05-09T21:01:03.699Z,2.67
2023-05-09T21:03:30.774Z,2.47
2023-05-09T21:05:58.794Z,2.70
2023-05-09T21:08:25.873Z,2.97
2023-05-09T21:10:52.909Z,2.25
2023-05-09T21:13:19.978Z,2.35
2023-05-09T21:15:50.088Z,2.55
2023-05-09T21:18:18.853Z,3.00
2023-05-09T21:20:45.969Z,2.85
2023-05-09T21:23:12.922Z,3.63
2023-05-09T21:25:39.866Z,3.40
2023-05-09T21:28:06.889Z,4.03
2023-05-09T21:30:33.807Z,3.08
2023-05-09T21:33:00.876Z,3.25
2023-05-09T21:35:27.801Z,2.70
2023-05-09T21:37:54.866Z,2.55
2023-05-09T21:40:21.811Z,3.03
2023-05-09T21:42:48.818Z,2.55
2023-05-09T21:45:15.936Z,3.10
2023-05-09T21:47:43.022Z,2.75
2023-05-09T21:50:10.605Z,3.05
2023-05-09T21:52:37.533Z,2.83
2023-05-09T21:55:04.882Z,2.90
2023-05-09T21:57:31.827Z,2.60
2023-05-09T22:00:01.462Z,2.95
2023-05-09T22:02:29.414Z,3.55
2023-05-09T22:04:56.412Z,3.13
2023-05-09T22:07:23.273Z,3.50
2023-05-09T22:09:50.435Z,3.45
2023-05-09T22:12:17.440Z,3.55
2023-05-09T22:14:52.989Z,3.28
2023-05-09T22:17:23.974Z,2.90
2023-05-09T22:19:50.900Z,3.08
2023-05-09T22:22:17.808Z,3.78
2023-05-09T22:24:44.772Z,3.20
2023-05-09T22:27:12.149Z,3.83
2023-05-09T22:29:39.034Z,3.65
2023-05-09T22:32:08.260Z,3.17
2023-05-09T22:34:35.968Z,3.20
2023-05-09T22:37:03.013Z,3.30
2023-05-09T22:39:33.259Z,4.03
2023-05-09T22:42:02.421Z,3.17
2023-05-09T22:44:29.461Z,3.35
2023-05-09T22:46:56.453Z,3.30
2023-05-09T22:49:23.931Z,3.38
2023-05-09T22:51:50.977Z,3.28
2023-05-09T22:54:21.419Z,3.42
2023-05-09T22:56:48.403Z,3.05
2023-05-09T22:59:15.382Z,3.47
2023-05-09T23:01:42.628Z,3.05
2023-05-09T23:04:09.601Z,3.13
2023-05-09T23:06:36.543Z,3.22
2023-05-09T23:09:04.200Z,3.13
2023-05-09T23:11:31.180Z,3.22
2023-05-09T23:13:58.141Z,3.70
2023-05-09T23:16:25.114Z,3.47
2023-05-09T23:18:52.031Z,3.85
2023-05-09T23:21:19.114Z,3.85
2023-05-09T23:23:46.042Z,3.90
2023-05-09T23:26:13.078Z,4.22
2023-05-09T23:28:40.081Z,3.60
2023-05-09T23:31:07.123Z,3.47
2023-05-09T23:33:34.445Z,3.80
2023-05-09T23:36:01.525Z,3.95
2023-05-09T23:38:28.504Z,3.60
2023-05-09T23:40:58.085Z,4.00
2023-05-09T23:43:25.141Z,3.10
2023-05-09T23:45:52.857Z,4.07
2023-05-09T23:48:19.888Z,3.72
2023-05-09T23:50:47.010Z,3.78
2023-05-09T23:53:14.005Z,3.42
2023-05-09T23:55:40.903Z,4.50
2023-05-09T23:58:07.860Z,3.58
